sensor_id;sensor_type;location;lat;lon;timestamp;temperature;humidity
14409;DHT22;7289;50.706;4.992;2022-07-01T00:01:52;13.00;99.90
14409;DHT22;7289;50.706;4.992;2022-07-01T00:04:22;13.10;99.90
14409;DHT22;7289;50.706;4.992;2022-07-01T00:07:13;13.00;99.90
14409;DHT22;7289;50.706;4.992;2022-07-01T00:09:43;12.90;99.90
14409;DHT22;7289;50.706;4.992;2022-07-01T00:12:11;12.90;99.90
14409;DHT22;7289;50.706;4.992;2022-07-01T00:14:41;12.80;99.90
14409;DHT22;7289;50.706;4.992;2022-07-01T00:17:09;12.90;99.90
14409;DHT22;7289;50.706;4.992;2022-07-01T00:19:38;12.80;99.90
14409;DHT22;7289;50.706;4.992;2022-07-01T00:22:07;12.80;99.90
14409;DHT22;7289;50.706;4.992;2022-07-01T00:24:36;12.80;99.90
14409;DHT22;7289;50.706;4.992;2022-07-01T00:27:06;12.80;99.90
14409;DHT22;7289;50.706;4.992;2022-07-01T00:29:34;12.70;99.90
14409;DHT22;7289;50.706;4.992;2022-07-01T00:32:05;12.60;99.90
14409;DHT22;7289;50.706;4.992;2022-07-01T00:34:33;12.60;99.90
14409;DHT22;7289;50.706;4.992;2022-07-01T00:37:02;12.50;99.90
14409;DHT22;7289;50.706;4.992;2022-07-01T00:39:30;12.50;99.90
14409;DHT22;7289;50.706;4.992;2022-07-01T00:42:02;12.50;99.90
14409;DHT22;7289;50.706;4.992;2022-07-01T00:44:31;12.50;99.90
14409;DHT22;7289;50.706;4.992;2022-07-01T00:47:02;12.50;99.90
14409;DHT22;7289;50.706;4.992;2022-07-01T00:49:32;12.50;99.90
14409;DHT22;7289;50.706;4.992;2022-07-01T00:52:01;12.40;99.90
14409;DHT22;7289;50.706;4.992;2022-07-01T00:54:30;12.40;99.90
14409;DHT22;7289;50.706;4.992;2022-07-01T00:56:59;12.40;99.90
14409;DHT22;7289;50.706;4.992;2022-07-01T00:59:27;12.40;99.90
14409;DHT22;7289;50.706;4.992;2022-07-01T01:01:58;12.40;99.90
14409;DHT22;7289;50.706;4.992;2022-07-01T01:04:26;12.30;99.90
14409;DHT22;7289;50.706;4.992;2022-07-01T01:06:56;12.40;99.90
14409;DHT22;7289;50.706;4.992;2022-07-01T01:09:25;12.40;99.90
14409;DHT22;7289;50.706;4.992;2022-07-01T01:11:53;12.50;99.90
14409;DHT22;7289;50.706;4.992;2022-07-01T01:14:21;12.50;99.90
14409;DHT22;7289;50.706;4.992;2022-07-01T01:16:50;12.50;99.90
14409;DHT22;7289;50.706;4.992;2022-07-01T01:19:18;12.40;99.90
14409;DHT22;7289;50.706;4.992;2022-07-01T01:21:48;12.40;99.90
14409;DHT22;7289;50.706;4.992;2022-07-01T01:24:16;12.40;99.90
14409;DHT22;7289;50.706;4.992;2022-07-01T01:26:45;12.40;99.90
14409;DHT22;7289;50.706;4.992;2022-07-01T01:29:13;12.40;99.90
14409;DHT22;7289;50.706;4.992;2022-07-01T01:31:41;12.40;99.90
14409;DHT22;7289;50.706;4.992;2022-07-01T01:34:09;12.40;99.90
14409;DHT22;7289;50.706;4.992;2022-07-01T01:36:38;12.40;99.90
14409;DHT22;7289;50.706;4.992;2022-07-01T01:39:08;12.40;99.90
14409;DHT22;7289;50.706;4.992;2022-07-01T01:41:37;12.50;99.90
14409;DHT22;7289;50.706;4.992;2022-07-01T01:44:06;12.50;99.90
14409;DHT22;7289;50.706;4.992;2022-07-01T01:46:34;12.50;99.90
14409;DHT22;7289;50.706;4.992;2022-07-01T01:49:03;12.60;99.90
14409;DHT22;7289;50.706;4.992;2022-07-01T01:51:32;12.60;99.90
14409;DHT22;7289;50.706;4.992;2022-07-01T01:54:01;12.60;99.90
14409;DHT22;7289;50.706;4.992;2022-07-01T01:56:31;12.60;99.90
14409;DHT22;7289;50.706;4.992;2022-07-01T01:58:59;12.60;99.90
14409;DHT22;7289;50.706;4.992;2022-07-01T02:01:27;12.60;99.90
14409;DHT22;7289;50.706;4.992;2022-07-01T02:03:56;12.70;99.90
14409;DHT22;7289;50.706;4.992;2022-07-01T02:06:26;12.70;99.90
14409;DHT22;7289;50.706;4.992;2022-07-01T02:08:54;12.80;99.90
14409;DHT22;7289;50.706;4.992;2022-07-01T02:11:22;12.80;99.90
14409;DHT22;7289;50.706;4.992;2022-07-01T02:13:52;12.80;99.90
14409;DHT22;7289;50.706;4.992;2022-07-01T02:16:20;12.80;99.90
14409;DHT22;7289;50.706;4.992;2022-07-01T02:18:49;12.80;99.90
14409;DHT22;7289;50.706;4.992;2022-07-01T02:21:17;12.80;99.90
14409;DHT22;7289;50.706;4.992;2022-07-01T02:23:45;12.80;99.90
14409;DHT22;7289;50.706;4.992;2022-07-01T02:26:14;12.80;99.90
14409;DHT22;7289;50.706;4.992;2022-07-01T02:28:42;12.80;99.90
14409;DHT22;7289;50.706;4.992;2022-07-01T02:31:12;12.80;99.90
14409;DHT22;7289;50.706;4.992;2022-07-01T02:33:40;12.80;99.90
14409;DHT22;7289;50.706;4.992;2022-07-01T02:36:08;12.80;99.90
14409;DHT22;7289;50.706;4.992;2022-07-01T02:38:37;12.80;99.90
14409;DHT22;7289;50.706;4.992;2022-07-01T02:41:05;12.80;99.90
14409;DHT22;7289;50.706;4.992;2022-07-01T02:43:33;12.80;99.90
14409;DHT22;7289;50.706;4.992;2022-07-01T02:46:01;12.80;99.90
14409;DHT22;7289;50.706;4.992;2022-07-01T02:48:31;12.80;99.90
14409;DHT22;7289;50.706;4.992;2022-07-01T02:50:59;12.80;99.90
14409;DHT22;7289;50.706;4.992;2022-07-01T02:53:28;12.90;99.90
14409;DHT22;7289;50.706;4.992;2022-07-01T02:55:56;12.90;99.90
14409;DHT22;7289;50.706;4.992;2022-07-01T02:58:24;12.90;99.90
14409;DHT22;7289;50.706;4.992;2022-07-01T03:00:53;12.90;99.90
14409;DHT22;7289;50.706;4.992;2022-07-01T03:03:21;12.90;99.90
14409;DHT22;7289;50.706;4.992;2022-07-01T03:05:51;12.90;99.90
14409;DHT22;7289;50.706;4.992;2022-07-01T03:08:19;12.90;99.90
14409;DHT22;7289;50.706;4.992;2022-07-01T03:10:47;12.90;99.90
14409;DHT22;7289;50.706;4.992;2022-07-01T03:13:16;12.90;99.90
14409;DHT22;7289;50.706;4.992;2022-07-01T03:15:46;12.90;99.90
14409;DHT22;7289;50.706;4.992;2022-07-01T03:18:14;12.90;99.90
14409;DHT22;7289;50.706;4.992;2022-07-01T03:20:43;12.90;99.90
14409;DHT22;7289;50.706;4.992;2022-07-01T03:23:12;12.90;99.90
14409;DHT22;7289;50.706;4.992;2022-07-01T03:25:40;12.90;99.90
14409;DHT22;7289;50.706;4.992;2022-07-01T03:28:09;12.90;99.90
14409;DHT22;7289;50.706;4.992;2022-07-01T03:30:37;12.90;99.90
14409;DHT22;7289;50.706;4.992;2022-07-01T03:33:05;12.90;99.90
14409;DHT22;7289;50.706;4.992;2022-07-01T03:35:33;12.90;99.90
14409;DHT22;7289;50.706;4.992;2022-07-01T03:38:07;12.80;99.90
14409;DHT22;7289;50.706;4.992;2022-07-01T03:40:37;12.80;99.90
14409;DHT22;7289;50.706;4.992;2022-07-01T03:43:05;12.90;99.90
14409;DHT22;7289;50.706;4.992;2022-07-01T03:45:33;12.90;99.90
14409;DHT22;7289;50.706;4.992;2022-07-01T03:48:02;12.90;99.90
14409;DHT22;7289;50.706;4.992;2022-07-01T03:50:30;13.00;99.90
14409;DHT22;7289;50.706;4.992;2022-07-01T03:52:58;13.00;99.90
14409;DHT22;7289;50.706;4.992;2022-07-01T03:55:45;13.10;99.90
14409;DHT22;7289;50.706;4.992;2022-07-01T03:58:14;13.10;99.90
14409;DHT22;7289;50.706;4.992;2022-07-01T04:00:42;13.10;99.90
14409;DHT22;7289;50.706;4.992;2022-07-01T04:03:10;13.20;99.90
14409;DHT22;7289;50.706;4.992;2022-07-01T04:05:39;13.20;99.90
14409;DHT22;7289;50.706;4.992;2022-07-01T04:08:08;13.20;99.90
14409;DHT22;7289;50.706;4.992;2022-07-01T04:10:39;13.30;99.90
14409;DHT22;7289;50.706;4.992;2022-07-01T04:13:10;13.30;99.90
14409;DHT22;7289;50.706;4.992;2022-07-01T04:15:58;13.40;99.90
14409;DHT22;7289;50.706;4.992;2022-07-01T04:18:27;13.50;99.90
14409;DHT22;7289;50.706;4.992;2022-07-01T04:20:56;13.60;99.90
14409;DHT22;7289;50.706;4.992;2022-07-01T04:23:42;13.70;99.90
14409;DHT22;7289;50.706;4.992;2022-07-01T04:26:10;13.70;99.90
14409;DHT22;7289;50.706;4.992;2022-07-01T04:29:00;13.80;99.90
14409;DHT22;7289;50.706;4.992;2022-07-01T04:31:28;13.90;99.90
14409;DHT22;7289;50.706;4.992;2022-07-01T04:33:57;14.00;99.90
14409;DHT22;7289;50.706;4.992;2022-07-01T04:36:25;14.00;99.90
14409;DHT22;7289;50.706;4.992;2022-07-01T04:38:53;14.10;99.90
14409;DHT22;7289;50.706;4.992;2022-07-01T04:41:22;14.10;99.90
14409;DHT22;7289;50.706;4.992;2022-07-01T04:44:09;14.20;99.90
14409;DHT22;7289;50.706;4.992;2022-07-01T04:46:37;14.20;99.90
14409;DHT22;7289;50.706;4.992;2022-07-01T04:49:06;14.10;99.90
14409;DHT22;7289;50.706;4.992;2022-07-01T04:51:35;14.20;99.90
14409;DHT22;7289;50.706;4.992;2022-07-01T04:54:04;14.20;99.90
14409;DHT22;7289;50.706;4.992;2022-07-01T04:56:34;14.20;99.90
14409;DHT22;7289;50.706;4.992;2022-07-01T04:59:11;14.30;99.90
14409;DHT22;7289;50.706;4.992;2022-07-01T05:01:40;14.30;99.90
14409;DHT22;7289;50.706;4.992;2022-07-01T05:04:09;14.40;99.90
14409;DHT22;7289;50.706;4.992;2022-07-01T05:06:37;14.40;99.90
14409;DHT22;7289;50.706;4.992;2022-07-01T05:09:06;14.50;99.90
14409;DHT22;7289;50.706;4.992;2022-07-01T05:11:34;14.60;99.90
14409;DHT22;7289;50.706;4.992;2022-07-01T05:14:02;14.70;99.90
14409;DHT22;7289;50.706;4.992;2022-07-01T05:16:32;14.90;99.90
14409;DHT22;7289;50.706;4.992;2022-07-01T05:19:01;15.00;99.90
14409;DHT22;7289;50.706;4.992;2022-07-01T05:21:47;15.10;99.90
14409;DHT22;7289;50.706;4.992;2022-07-01T05:24:26;15.20;99.90
14409;DHT22;7289;50.706;4.992;2022-07-01T05:26:55;15.20;99.90
14409;DHT22;7289;50.706;4.992;2022-07-01T05:29:24;15.20;99.90
14409;DHT22;7289;50.706;4.992;2022-07-01T05:31:54;15.10;99.90
14409;DHT22;7289;50.706;4.992;2022-07-01T05:34:23;15.00;99.90
14409;DHT22;7289;50.706;4.992;2022-07-01T05:36:51;15.00;99.90
14409;DHT22;7289;50.706;4.992;2022-07-01T05:39:19;15.00;99.90
14409;DHT22;7289;50.706;4.992;2022-07-01T05:41:48;15.20;99.90
14409;DHT22;7289;50.706;4.992;2022-07-01T05:44:16;15.40;99.90
14409;DHT22;7289;50.706;4.992;2022-07-01T05:46:44;15.60;99.90
14409;DHT22;7289;50.706;4.992;2022-07-01T05:49:14;15.60;99.90
14409;DHT22;7289;50.706;4.992;2022-07-01T05:51:45;15.60;99.90
14409;DHT22;7289;50.706;4.992;2022-07-01T05:54:13;15.50;99.90
14409;DHT22;7289;50.706;4.992;2022-07-01T05:56:41;15.50;99.90
14409;DHT22;7289;50.706;4.992;2022-07-01T05:59:10;15.70;99.90
14409;DHT22;7289;50.706;4.992;2022-07-01T06:01:38;15.80;99.90
14409;DHT22;7289;50.706;4.992;2022-07-01T06:04:06;15.80;99.90
14409;DHT22;7289;50.706;4.992;2022-07-01T06:06:36;15.90;99.90
14409;DHT22;7289;50.706;4.992;2022-07-01T06:09:05;15.80;99.90
14409;DHT22;7289;50.706;4.992;2022-07-01T06:11:33;15.70;99.90
14409;DHT22;7289;50.706;4.992;2022-07-01T06:14:02;15.70;99.90
14409;DHT22;7289;50.706;4.992;2022-07-01T06:16:30;15.70;99.90
14409;DHT22;7289;50.706;4.992;2022-07-01T06:18:58;15.70;99.90
14409;DHT22;7289;50.706;4.992;2022-07-01T06:21:27;15.80;99.90
14409;DHT22;7289;50.706;4.992;2022-07-01T06:23:57;15.80;99.90
14409;DHT22;7289;50.706;4.992;2022-07-01T06:26:25;15.80;99.90
14409;DHT22;7289;50.706;4.992;2022-07-01T06:28:53;15.80;99.90
14409;DHT22;7289;50.706;4.992;2022-07-01T06:31:22;15.80;99.90
14409;DHT22;7289;50.706;4.992;2022-07-01T06:33:51;15.70;99.90
14409;DHT22;7289;50.706;4.992;2022-07-01T06:36:20;15.70;99.90
14409;DHT22;7289;50.706;4.992;2022-07-01T06:38:48;15.80;99.90
14409;DHT22;7289;50.706;4.992;2022-07-01T06:41:18;15.80;99.90
14409;DHT22;7289;50.706;4.992;2022-07-01T06:43:57;15.80;99.90
14409;DHT22;7289;50.706;4.992;2022-07-01T06:46:26;15.90;99.90
14409;DHT22;7289;50.706;4.992;2022-07-01T06:48:55;16.00;99.90
14409;DHT22;7289;50.706;4.992;2022-07-01T06:51:26;16.10;99.90
14409;DHT22;7289;50.706;4.992;2022-07-01T06:53:55;16.10;99.90
14409;DHT22;7289;50.706;4.992;2022-07-01T06:56:25;16.10;99.90
14409;DHT22;7289;50.706;4.992;2022-07-01T06:58:53;16.20;99.90
14409;DHT22;7289;50.706;4.992;2022-07-01T07:01:22;16.30;99.90
14409;DHT22;7289;50.706;4.992;2022-07-01T07:03:50;16.30;99.90
14409;DHT22;7289;50.706;4.992;2022-07-01T07:06:19;16.40;99.90
14409;DHT22;7289;50.706;4.992;2022-07-01T07:08:48;16.60;99.90
14409;DHT22;7289;50.706;4.992;2022-07-01T07:11:16;16.70;99.90
14409;DHT22;7289;50.706;4.992;2022-07-01T07:13:48;16.80;99.90
14409;DHT22;7289;50.706;4.992;2022-07-01T07:16:16;16.90;99.90
14409;DHT22;7289;50.706;4.992;2022-07-01T07:18:48;16.90;99.90
14409;DHT22;7289;50.706;4.992;2022-07-01T07:21:17;17.00;99.90
14409;DHT22;7289;50.706;4.992;2022-07-01T07:23:45;17.10;99.90
14409;DHT22;7289;50.706;4.992;2022-07-01T07:26:13;17.20;99.90
14409;DHT22;7289;50.706;4.992;2022-07-01T07:28:42;17.40;99.90
14409;DHT22;7289;50.706;4.992;2022-07-01T07:31:11;17.60;99.90
14409;DHT22;7289;50.706;4.992;2022-07-01T07:33:40;17.80;99.90
14409;DHT22;7289;50.706;4.992;2022-07-01T07:36:08;17.80;99.90
14409;DHT22;7289;50.706;4.992;2022-07-01T07:38:37;17.80;99.90
14409;DHT22;7289;50.706;4.992;2022-07-01T07:41:06;17.70;99.90
14409;DHT22;7289;50.706;4.992;2022-07-01T07:43:34;17.70;99.50
14409;DHT22;7289;50.706;4.992;2022-07-01T07:46:03;17.80;99.90
14409;DHT22;7289;50.706;4.992;2022-07-01T07:48:32;18.00;99.90
14409;DHT22;7289;50.706;4.992;2022-07-01T07:51:01;18.10;99.90
14409;DHT22;7289;50.706;4.992;2022-07-01T07:53:29;18.10;98.60
14409;DHT22;7289;50.706;4.992;2022-07-01T07:55:58;18.30;99.50
14409;DHT22;7289;50.706;4.992;2022-07-01T07:58:26;18.30;98.70
14409;DHT22;7289;50.706;4.992;2022-07-01T08:00:54;18.30;98.40
14409;DHT22;7289;50.706;4.992;2022-07-01T08:03:23;18.40;98.50
14409;DHT22;7289;50.706;4.992;2022-07-01T08:05:52;18.30;97.10
14409;DHT22;7289;50.706;4.992;2022-07-01T08:08:21;18.40;97.50
14409;DHT22;7289;50.706;4.992;2022-07-01T08:10:49;18.10;96.80
14409;DHT22;7289;50.706;4.992;2022-07-01T08:13:18;18.10;97.90
14409;DHT22;7289;50.706;4.992;2022-07-01T08:15:46;18.10;98.10
14409;DHT22;7289;50.706;4.992;2022-07-01T08:18:14;18.20;97.00
14409;DHT22;7289;50.706;4.992;2022-07-01T08:20:43;18.10;97.70
14409;DHT22;7289;50.706;4.992;2022-07-01T08:23:12;18.20;98.40
14409;DHT22;7289;50.706;4.992;2022-07-01T08:25:41;18.30;98.10
14409;DHT22;7289;50.706;4.992;2022-07-01T08:28:09;18.40;97.90
14409;DHT22;7289;50.706;4.992;2022-07-01T08:30:38;18.30;98.30
14409;DHT22;7289;50.706;4.992;2022-07-01T08:33:07;18.30;98.90
14409;DHT22;7289;50.706;4.992;2022-07-01T08:35:36;18.20;98.00
14409;DHT22;7289;50.706;4.992;2022-07-01T08:38:05;18.10;96.00
14409;DHT22;7289;50.706;4.992;2022-07-01T08:40:35;18.20;96.30
14409;DHT22;7289;50.706;4.992;2022-07-01T08:43:05;18.20;94.40
14409;DHT22;7289;50.706;4.992;2022-07-01T08:45:34;18.40;95.20
14409;DHT22;7289;50.706;4.992;2022-07-01T08:48:05;18.80;95.40
14409;DHT22;7289;50.706;4.992;2022-07-01T08:50:35;19.40;94.40
14409;DHT22;7289;50.706;4.992;2022-07-01T08:53:04;19.70;93.30
14409;DHT22;7289;50.706;4.992;2022-07-01T08:55:33;19.80;93.00
14409;DHT22;7289;50.706;4.992;2022-07-01T08:58:26;19.90;94.00
14409;DHT22;7289;50.706;4.992;2022-07-01T09:01:12;19.50;93.90
14409;DHT22;7289;50.706;4.992;2022-07-01T09:03:41;19.30;93.90
14409;DHT22;7289;50.706;4.992;2022-07-01T09:06:14;19.30;94.50
14409;DHT22;7289;50.706;4.992;2022-07-01T09:08:44;19.40;94.70
14409;DHT22;7289;50.706;4.992;2022-07-01T09:11:14;19.40;94.00
14409;DHT22;7289;50.706;4.992;2022-07-01T09:13:44;19.30;93.80
14409;DHT22;7289;50.706;4.992;2022-07-01T09:16:15;19.50;93.30
14409;DHT22;7289;50.706;4.992;2022-07-01T09:18:59;19.60;93.20
14409;DHT22;7289;50.706;4.992;2022-07-01T09:21:28;19.70;93.20
14409;DHT22;7289;50.706;4.992;2022-07-01T09:23:58;19.50;92.60
14409;DHT22;7289;50.706;4.992;2022-07-01T09:26:27;19.30;92.30
14409;DHT22;7289;50.706;4.992;2022-07-01T09:28:57;19.40;93.40
14409;DHT22;7289;50.706;4.992;2022-07-01T09:31:32;19.40;93.20
14409;DHT22;7289;50.706;4.992;2022-07-01T09:34:06;19.60;93.10
14409;DHT22;7289;50.706;4.992;2022-07-01T09:36:38;19.90;93.10
14409;DHT22;7289;50.706;4.992;2022-07-01T09:39:07;20.50;91.60
14409;DHT22;7289;50.706;4.992;2022-07-01T09:41:57;20.90;90.60
14409;DHT22;7289;50.706;4.992;2022-07-01T09:44:26;20.70;90.00
14409;DHT22;7289;50.706;4.992;2022-07-01T09:46:57;21.00;91.10
14409;DHT22;7289;50.706;4.992;2022-07-01T09:49:28;21.30;90.90
14409;DHT22;7289;50.706;4.992;2022-07-01T09:51:56;21.30;88.40
14409;DHT22;7289;50.706;4.992;2022-07-01T09:54:24;21.60;90.10
14409;DHT22;7289;50.706;4.992;2022-07-01T09:56:53;22.00;87.80
14409;DHT22;7289;50.706;4.992;2022-07-01T09:59:22;22.10;86.90
14409;DHT22;7289;50.706;4.992;2022-07-01T10:01:52;22.10;86.90
14409;DHT22;7289;50.706;4.992;2022-07-01T10:04:30;22.30;85.60
14409;DHT22;7289;50.706;4.992;2022-07-01T10:07:10;22.60;85.30
14409;DHT22;7289;50.706;4.992;2022-07-01T10:10:01;22.40;82.10
14409;DHT22;7289;50.706;4.992;2022-07-01T10:12:38;22.20;83.40
14409;DHT22;7289;50.706;4.992;2022-07-01T10:15:09;21.70;82.10
14409;DHT22;7289;50.706;4.992;2022-07-01T10:17:45;21.40;84.00
14409;DHT22;7289;50.706;4.992;2022-07-01T10:20:16;21.20;85.20
14409;DHT22;7289;50.706;4.992;2022-07-01T10:22:50;20.90;85.40
14409;DHT22;7289;50.706;4.992;2022-07-01T10:25:34;20.70;85.60
14409;DHT22;7289;50.706;4.992;2022-07-01T10:28:23;20.80;87.60
14409;DHT22;7289;50.706;4.992;2022-07-01T10:30:53;20.70;87.40
14409;DHT22;7289;50.706;4.992;2022-07-01T10:33:33;20.50;87.00
14409;DHT22;7289;50.706;4.992;2022-07-01T10:36:10;20.60;88.10
14409;DHT22;7289;50.706;4.992;2022-07-01T10:39:07;20.60;88.90
14409;DHT22;7289;50.706;4.992;2022-07-01T10:41:38;20.70;88.40
14409;DHT22;7289;50.706;4.992;2022-07-01T10:44:07;20.80;87.30
14409;DHT22;7289;50.706;4.992;2022-07-01T10:47:02;21.00;88.40
14409;DHT22;7289;50.706;4.992;2022-07-01T10:50:12;21.30;88.90
14409;DHT22;7289;50.706;4.992;2022-07-01T10:53:00;21.50;85.70
14409;DHT22;7289;50.706;4.992;2022-07-01T10:55:37;21.70;85.60
14409;DHT22;7289;50.706;4.992;2022-07-01T10:58:05;21.90;84.20
14409;DHT22;7289;50.706;4.992;2022-07-01T11:00:35;22.10;84.10
14409;DHT22;7289;50.706;4.992;2022-07-01T11:03:19;22.40;85.60
14409;DHT22;7289;50.706;4.992;2022-07-01T11:05:52;21.90;81.50
14409;DHT22;7289;50.706;4.992;2022-07-01T11:08:20;22.00;83.70
14409;DHT22;7289;50.706;4.992;2022-07-01T11:10:58;22.00;82.70
14409;DHT22;7289;50.706;4.992;2022-07-01T11:13:29;22.20;83.10
14409;DHT22;7289;50.706;4.992;2022-07-01T11:15:58;22.10;81.10
14409;DHT22;7289;50.706;4.992;2022-07-01T11:18:27;22.30;82.40
14409;DHT22;7289;50.706;4.992;2022-07-01T11:21:05;22.40;82.00
14409;DHT22;7289;50.706;4.992;2022-07-01T11:23:34;21.80;82.30
14409;DHT22;7289;50.706;4.992;2022-07-01T11:26:22;22.00;84.20
14409;DHT22;7289;50.706;4.992;2022-07-01T11:28:50;21.60;84.00
14409;DHT22;7289;50.706;4.992;2022-07-01T11:31:29;21.20;84.00
14409;DHT22;7289;50.706;4.992;2022-07-01T11:33:58;21.10;85.60
14409;DHT22;7289;50.706;4.992;2022-07-01T11:36:27;21.20;87.10
14409;DHT22;7289;50.706;4.992;2022-07-01T11:39:13;21.30;88.20
14409;DHT22;7289;50.706;4.992;2022-07-01T11:41:56;21.50;86.00
14409;DHT22;7289;50.706;4.992;2022-07-01T11:44:32;21.50;85.00
14409;DHT22;7289;50.706;4.992;2022-07-01T11:47:02;21.30;84.60
14409;DHT22;7289;50.706;4.992;2022-07-01T11:49:31;21.20;86.90
14409;DHT22;7289;50.706;4.992;2022-07-01T11:52:02;21.10;86.30
14409;DHT22;7289;50.706;4.992;2022-07-01T11:54:35;21.00;84.70
14409;DHT22;7289;50.706;4.992;2022-07-01T11:57:10;20.80;84.90
14409;DHT22;7289;50.706;4.992;2022-07-01T11:59:40;20.70;85.20
14409;DHT22;7289;50.706;4.992;2022-07-01T12:02:12;20.70;86.80
14409;DHT22;7289;50.706;4.992;2022-07-01T12:04:42;20.50;83.90
14409;DHT22;7289;50.706;4.992;2022-07-01T12:07:14;20.50;84.20
14409;DHT22;7289;50.706;4.992;2022-07-01T12:09:42;20.70;88.00
14409;DHT22;7289;50.706;4.992;2022-07-01T12:12:15;20.60;83.10
14409;DHT22;7289;50.706;4.992;2022-07-01T12:14:50;20.70;84.00
14409;DHT22;7289;50.706;4.992;2022-07-01T12:17:20;20.80;82.20
14409;DHT22;7289;50.706;4.992;2022-07-01T12:19:49;21.00;82.70
14409;DHT22;7289;50.706;4.992;2022-07-01T12:22:21;21.10;78.90
14409;DHT22;7289;50.706;4.992;2022-07-01T12:24:52;21.70;81.20
14409;DHT22;7289;50.706;4.992;2022-07-01T12:27:22;22.10;80.00
14409;DHT22;7289;50.706;4.992;2022-07-01T12:29:53;22.50;79.90
14409;DHT22;7289;50.706;4.992;2022-07-01T12:32:23;22.90;77.40
14409;DHT22;7289;50.706;4.992;2022-07-01T12:34:53;23.30;77.50
14409;DHT22;7289;50.706;4.992;2022-07-01T12:37:30;23.40;75.20
14409;DHT22;7289;50.706;4.992;2022-07-01T12:40:02;22.90;75.90
14409;DHT22;7289;50.706;4.992;2022-07-01T12:42:33;23.10;79.10
14409;DHT22;7289;50.706;4.992;2022-07-01T12:45:03;22.80;77.20
14409;DHT22;7289;50.706;4.992;2022-07-01T12:47:33;22.80;78.70
14409;DHT22;7289;50.706;4.992;2022-07-01T12:50:13;22.80;78.70
14409;DHT22;7289;50.706;4.992;2022-07-01T12:52:55;22.60;77.80
14409;DHT22;7289;50.706;4.992;2022-07-01T12:55:24;22.60;78.00
14409;DHT22;7289;50.706;4.992;2022-07-01T12:57:54;22.70;81.20
14409;DHT22;7289;50.706;4.992;2022-07-01T13:00:23;22.70;82.60
14409;DHT22;7289;50.706;4.992;2022-07-01T13:02:55;22.60;76.60
14409;DHT22;7289;50.706;4.992;2022-07-01T13:05:24;22.70;78.10
14409;DHT22;7289;50.706;4.992;2022-07-01T13:07:54;22.80;77.30
14409;DHT22;7289;50.706;4.992;2022-07-01T13:10:22;22.50;76.00
14409;DHT22;7289;50.706;4.992;2022-07-01T13:12:51;22.60;74.80
14409;DHT22;7289;50.706;4.992;2022-07-01T13:15:20;22.70;76.80
14409;DHT22;7289;50.706;4.992;2022-07-01T13:17:49;22.70;76.80
14409;DHT22;7289;50.706;4.992;2022-07-01T13:20:17;22.50;75.60
14409;DHT22;7289;50.706;4.992;2022-07-01T13:22:46;22.40;79.00
14409;DHT22;7289;50.706;4.992;2022-07-01T13:25:16;22.40;77.00
14409;DHT22;7289;50.706;4.992;2022-07-01T13:27:44;22.60;79.50
14409;DHT22;7289;50.706;4.992;2022-07-01T13:30:14;22.40;77.60
14409;DHT22;7289;50.706;4.992;2022-07-01T13:32:43;22.20;76.00
14409;DHT22;7289;50.706;4.992;2022-07-01T13:35:12;22.20;77.70
14409;DHT22;7289;50.706;4.992;2022-07-01T13:37:41;22.20;77.90
14409;DHT22;7289;50.706;4.992;2022-07-01T13:40:10;22.20;79.70
14409;DHT22;7289;50.706;4.992;2022-07-01T13:42:40;22.20;77.80
14409;DHT22;7289;50.706;4.992;2022-07-01T13:45:09;22.10;78.10
14409;DHT22;7289;50.706;4.992;2022-07-01T13:47:37;22.20;80.30
14409;DHT22;7289;50.706;4.992;2022-07-01T13:50:06;22.30;78.20
14409;DHT22;7289;50.706;4.992;2022-07-01T13:52:35;22.40;78.90
14409;DHT22;7289;50.706;4.992;2022-07-01T13:55:05;22.30;75.00
14409;DHT22;7289;50.706;4.992;2022-07-01T13:57:33;22.40;75.10
14409;DHT22;7289;50.706;4.992;2022-07-01T14:00:04;22.40;76.70
14409;DHT22;7289;50.706;4.992;2022-07-01T14:02:34;22.30;73.80
14409;DHT22;7289;50.706;4.992;2022-07-01T14:05:03;22.30;72.90
14409;DHT22;7289;50.706;4.992;2022-07-01T14:07:32;22.30;73.60
14409;DHT22;7289;50.706;4.992;2022-07-01T14:10:00;22.40;77.20
14409;DHT22;7289;50.706;4.992;2022-07-01T14:12:29;22.40;74.80
14409;DHT22;7289;50.706;4.992;2022-07-01T14:14:57;22.50;75.30
14409;DHT22;7289;50.706;4.992;2022-07-01T14:17:27;22.60;72.60
14409;DHT22;7289;50.706;4.992;2022-07-01T14:19:56;22.60;70.40
14409;DHT22;7289;50.706;4.992;2022-07-01T14:22:25;22.70;70.40
14409;DHT22;7289;50.706;4.992;2022-07-01T14:24:53;22.60;68.10
14409;DHT22;7289;50.706;4.992;2022-07-01T14:27:22;22.60;69.10
14409;DHT22;7289;50.706;4.992;2022-07-01T14:29:50;22.70;69.10
14409;DHT22;7289;50.706;4.992;2022-07-01T14:32:23;22.80;68.40
14409;DHT22;7289;50.706;4.992;2022-07-01T14:34:57;22.90;71.90
14409;DHT22;7289;50.706;4.992;2022-07-01T14:37:25;22.90;67.90
14409;DHT22;7289;50.706;4.992;2022-07-01T14:39:54;23.00;67.70
14409;DHT22;7289;50.706;4.992;2022-07-01T14:42:24;23.10;67.10
14409;DHT22;7289;50.706;4.992;2022-07-01T14:44:54;23.30;70.40
14409;DHT22;7289;50.706;4.992;2022-07-01T14:47:23;23.30;67.40
14409;DHT22;7289;50.706;4.992;2022-07-01T14:49:51;23.40;68.60
14409;DHT22;7289;50.706;4.992;2022-07-01T14:52:22;23.40;65.70
14409;DHT22;7289;50.706;4.992;2022-07-01T14:54:51;23.30;64.70
14409;DHT22;7289;50.706;4.992;2022-07-01T14:57:20;23.40;64.90
14409;DHT22;7289;50.706;4.992;2022-07-01T14:59:48;23.50;65.20
14409;DHT22;7289;50.706;4.992;2022-07-01T15:02:16;23.70;65.30
14409;DHT22;7289;50.706;4.992;2022-07-01T15:04:45;23.70;64.80
14409;DHT22;7289;50.706;4.992;2022-07-01T15:07:14;23.90;65.20
14409;DHT22;7289;50.706;4.992;2022-07-01T15:09:44;23.80;63.40
14409;DHT22;7289;50.706;4.992;2022-07-01T15:12:12;23.50;64.00
14409;DHT22;7289;50.706;4.992;2022-07-01T15:14:40;23.70;66.00
14409;DHT22;7289;50.706;4.992;2022-07-01T15:17:09;23.60;66.40
14409;DHT22;7289;50.706;4.992;2022-07-01T15:19:38;23.70;67.30
14409;DHT22;7289;50.706;4.992;2022-07-01T15:22:07;23.70;64.00
14409;DHT22;7289;50.706;4.992;2022-07-01T15:24:37;23.60;63.90
14409;DHT22;7289;50.706;4.992;2022-07-01T15:27:08;23.60;64.90
14409;DHT22;7289;50.706;4.992;2022-07-01T15:29:36;23.60;63.50
14409;DHT22;7289;50.706;4.992;2022-07-01T15:32:06;23.80;67.20
14409;DHT22;7289;50.706;4.992;2022-07-01T15:34:34;23.60;64.90
14409;DHT22;7289;50.706;4.992;2022-07-01T15:37:03;23.70;65.50
14409;DHT22;7289;50.706;4.992;2022-07-01T15:39:32;23.70;65.40
14409;DHT22;7289;50.706;4.992;2022-07-01T15:42:01;23.60;62.80
14409;DHT22;7289;50.706;4.992;2022-07-01T15:44:32;23.50;62.80
14409;DHT22;7289;50.706;4.992;2022-07-01T15:47:01;23.50;63.00
14409;DHT22;7289;50.706;4.992;2022-07-01T15:49:50;23.60;64.20
14409;DHT22;7289;50.706;4.992;2022-07-01T15:52:18;23.60;64.60
14409;DHT22;7289;50.706;4.992;2022-07-01T15:54:46;23.80;65.60
14409;DHT22;7289;50.706;4.992;2022-07-01T15:57:15;23.90;64.00
14409;DHT22;7289;50.706;4.992;2022-07-01T15:59:44;24.00;63.50
14409;DHT22;7289;50.706;4.992;2022-07-01T16:02:13;23.90;62.50
14409;DHT22;7289;50.706;4.992;2022-07-01T16:04:46;23.80;62.10
14409;DHT22;7289;50.706;4.992;2022-07-01T16:07:18;23.70;61.60